createdAt,value
2023-05-09T00:02:19.540Z,68.00
2023-05-09T00:06:02.063Z,68.00
2023-05-09T00:09:43.767Z,68.00
2023-05-09T00:13:25.960Z,68.00
2023-05-09T00:17:08.249Z,68.00
2023-05-09T00:20:50.822Z,68.00
2023-05-09T00:24:32.533Z,68.00
2023-05-09T00:28:14.333Z,67.90
2023-05-09T00:31:56.284Z,67.90
2023-05-09T00:35:38.068Z,67.90
2023-05-09T00:39:19.820Z,67.90
2023-05-09T00:43:01.628Z,67.90
2023-05-09T00:46:44.148Z,67.90
2023-05-09T00:50:26.152Z,67.90
2023-05-09T00:54:09.485Z,67.90
2023-05-09T00:57:51.278Z,67.90
2023-05-09T01:01:33.079Z,67.90
2023-05-09T01:05:15.509Z,67.90
2023-05-09T01:09:23.459Z,67.90
2023-05-09T01:13:15.406Z,67.80
2023-05-09T01:17:09.509Z,67.80
2023-05-09T01:21:03.901Z,67.80
2023-05-09T01:25:07.303Z,67.80
2023-05-09T01:29:16.779Z,67.90
2023-05-09T01:33:01.380Z,67.80
2023-05-09T01:36:44.014Z,67.80
2023-05-09T01:40:30.558Z,67.80
2023-05-09T01:44:15.262Z,67.80
2023-05-09T01:47:58.607Z,67.80
2023-05-09T01:51:43.672Z,67.80
2023-05-09T01:55:28.656Z,67.80
2023-05-09T01:59:15.933Z,67.80
2023-05-09T02:02:58.797Z,67.80
2023-05-09T02:06:41.247Z,67.80
2023-05-09T02:10:25.445Z,67.80
2023-05-09T02:14:07.365Z,67.80
2023-05-09T02:17:49.167Z,67.70
2023-05-09T02:21:31.924Z,67.80
2023-05-09T02:25:15.589Z,67.80
2023-05-09T02:28:58.936Z,67.70
2023-05-09T02:32:43.274Z,67.70
2023-05-09T02:36:25.565Z,67.70
2023-05-09T02:40:09.254Z,67.70
2023-05-09T02:43:50.995Z,67.70
2023-05-09T02:47:32.778Z,67.80
2023-05-09T02:51:14.531Z,67.70
2023-05-09T02:54:56.303Z,67.70
2023-05-09T02:58:38.462Z,67.70
2023-05-09T03:02:20.281Z,67.70
2023-05-09T03:06:02.005Z,67.70
2023-05-09T03:09:43.718Z,67.70
2023-05-09T03:13:25.850Z,67.60
2023-05-09T03:17:07.624Z,67.70
2023-05-09T03:20:49.338Z,67.60
2023-05-09T03:24:31.106Z,67.70
2023-05-09T03:28:12.769Z,67.70
2023-05-09T03:31:54.500Z,67.80
2023-05-09T03:35:36.202Z,67.70
2023-05-09T03:39:17.889Z,67.80
2023-05-09T03:42:59.603Z,67.80
2023-05-09T03:46:41.317Z,67.80
2023-05-09T03:50:23.176Z,67.80
2023-05-09T03:54:05.640Z,67.70
2023-05-09T03:57:47.339Z,67.70
2023-05-09T04:01:29.610Z,67.70
2023-05-09T04:05:11.612Z,67.80
2023-05-09T04:08:53.382Z,67.80
2023-05-09T04:12:35.700Z,67.70
2023-05-09T04:16:22.336Z,67.80
2023-05-09T04:20:11.737Z,67.80
2023-05-09T04:23:57.240Z,67.40
2023-05-09T04:27:43.150Z,67.50
2023-05-09T04:31:28.873Z,67.80
2023-05-09T04:35:16.094Z,68.10
2023-05-09T04:39:03.735Z,68.10
2023-05-09T04:42:49.661Z,68.10
2023-05-09T04:46:35.609Z,68.10
2023-05-09T04:50:21.539Z,68.10
2023-05-09T04:54:07.219Z,68.20
2023-05-09T04:57:54.506Z,68.80
2023-05-09T05:01:40.095Z,68.20
2023-05-09T05:05:26.368Z,68.20
2023-05-09T05:09:12.438Z,68.20
2023-05-09T05:12:58.443Z,68.10
2023-05-09T05:16:43.918Z,68.20
2023-05-09T05:20:29.894Z,68.10
2023-05-09T05:24:11.890Z,68.10
2023-05-09T05:27:53.614Z,68.10
2023-05-09T05:31:35.376Z,68.10
2023-05-09T05:35:17.550Z,68.00
2023-05-09T05:38:59.419Z,68.00
2023-05-09T05:42:41.159Z,68.00
2023-05-09T05:46:22.943Z,68.00
2023-05-09T05:50:06.976Z,68.00
2023-05-09T05:53:48.870Z,68.00
2023-05-09T05:57:30.963Z,68.00
2023-05-09T06:01:13.843Z,68.00
2023-05-09T06:04:56.135Z,68.00
2023-05-09T06:08:37.947Z,68.00
2023-05-09T06:12:19.689Z,68.00
2023-05-09T06:16:15.084Z,68.00
2023-05-09T06:20:00.200Z,68.00
2023-05-09T06:23:57.074Z,68.00
2023-05-09T06:27:43.613Z,68.00
2023-05-09T06:31:25.879Z,68.00
2023-05-09T06:35:08.033Z,68.00
2023-05-09T06:38:49.711Z,68.00
2023-05-09T06:42:33.642Z,68.00
2023-05-09T06:46:15.468Z,68.00
2023-05-09T06:49:57.189Z,68.10
2023-05-09T06:53:38.890Z,68.00
2023-05-09T06:57:20.621Z,68.00
2023-05-09T07:01:02.478Z,68.00
2023-05-09T07:04:44.288Z,68.00
2023-05-09T07:08:26.743Z,68.00
2023-05-09T07:12:08.660Z,68.00
2023-05-09T07:15:50.542Z,68.00
2023-05-09T07:19:32.338Z,68.00
2023-05-09T07:23:14.095Z,68.00
2023-05-09T07:26:55.787Z,68.00
2023-05-09T07:30:37.480Z,68.00
2023-05-09T07:34:20.185Z,68.00
2023-05-09T07:38:02.322Z,68.00
2023-05-09T07:41:44.267Z,68.00
2023-05-09T07:45:26.088Z,68.00
2023-05-09T07:49:08.348Z,68.10
2023-05-09T07:52:50.322Z,68.10
2023-05-09T07:56:32.091Z,68.10
2023-05-09T08:00:15.078Z,68.20
2023-05-09T08:03:56.828Z,68.20
2023-05-09T08:07:38.655Z,68.10
2023-05-09T08:11:20.716Z,68.10
2023-05-09T08:15:03.543Z,68.10
2023-05-09T08:18:46.067Z,68.10
2023-05-09T08:22:28.002Z,68.00
2023-05-09T08:26:10.087Z,68.00
2023-05-09T08:29:52.196Z,68.00
2023-05-09T08:33:34.234Z,68.00
2023-05-09T08:37:16.470Z,68.10
2023-05-09T08:41:02.184Z,68.00
2023-05-09T08:44:44.349Z,68.00
2023-05-09T08:48:28.426Z,68.00
2023-05-09T08:52:12.248Z,68.00
2023-05-09T08:55:54.519Z,68.00
2023-05-09T08:59:38.377Z,68.10
2023-05-09T09:03:20.513Z,68.00
2023-05-09T09:07:09.703Z,68.00
2023-05-09T09:10:56.056Z,68.00
2023-05-09T09:14:45.244Z,68.00
2023-05-09T09:18:33.023Z,67.90
2023-05-09T09:22:23.057Z,67.90
2023-05-09T09:26:08.321Z,67.90
2023-05-09T09:29:54.201Z,68.00
2023-05-09T09:33:40.152Z,68.00
2023-05-09T09:37:26.211Z,68.00
2023-05-09T09:41:15.202Z,67.90
2023-05-09T09:45:05.295Z,68.00
2023-05-09T09:48:55.037Z,68.00
2023-05-09T09:52:45.023Z,68.00
2023-05-09T09:56:41.087Z,68.00
2023-05-09T10:00:33.939Z,68.10
2023-05-09T10:04:19.973Z,68.10
2023-05-09T10:08:06.965Z,68.20
2023-05-09T10:11:56.758Z,68.20
2023-05-09T10:15:53.066Z,68.20
2023-05-09T10:19:38.057Z,68.30
2023-05-09T10:23:20.906Z,68.20
2023-05-09T10:27:04.673Z,68.20
2023-05-09T10:31:16.597Z,68.20
2023-05-09T10:35:06.916Z,68.20
2023-05-09T10:38:49.454Z,68.20
2023-05-09T10:42:31.846Z,68.20
2023-05-09T10:46:14.600Z,68.20
2023-05-09T10:49:57.272Z,68.20
2023-05-09T10:53:43.865Z,68.20
2023-05-09T10:57:27.300Z,68.30
2023-05-09T11:01:09.639Z,68.20
2023-05-09T11:05:15.127Z,68.20
2023-05-09T11:08:57.047Z,68.30
2023-05-09T11:12:59.383Z,68.30
2023-05-09T11:17:00.914Z,68.30
2023-05-09T11:20:44.493Z,68.30
2023-05-09T11:24:30.917Z,68.30
2023-05-09T11:28:29.965Z,68.30
2023-05-09T11:32:15.409Z,68.30
2023-05-09T11:36:18.610Z,68.30
2023-05-09T11:40:04.932Z,68.40
2023-05-09T11:43:46.829Z,68.30
2023-05-09T11:47:29.572Z,68.40
2023-05-09T11:51:18.638Z,68.40
2023-05-09T11:55:00.343Z,68.40
2023-05-09T11:58:42.450Z,68.40
2023-05-09T12:02:24.470Z,68.40
2023-05-09T12:06:06.588Z,68.40
2023-05-09T12:09:49.948Z,68.50
2023-05-09T12:13:31.814Z,68.50
2023-05-09T12:17:14.098Z,68.40
2023-05-09T12:20:56.161Z,68.50
2023-05-09T12:24:38.055Z,68.70
2023-05-09T12:28:24.071Z,68.60
2023-05-09T12:32:06.238Z,68.60
2023-05-09T12:35:49.691Z,68.60
2023-05-09T12:39:31.454Z,68.70
2023-05-09T12:43:13.953Z,68.70
2023-05-09T12:47:02.939Z,68.80
2023-05-09T12:50:47.547Z,68.80
2023-05-09T12:54:29.958Z,68.80
2023-05-09T12:58:14.891Z,68.90
2023-05-09T13:01:58.458Z,68.90
2023-05-09T13:05:40.494Z,68.80
2023-05-09T13:09:23.378Z,68.90
2023-05-09T13:13:05.239Z,68.90
2023-05-09T13:16:47.349Z,68.90
2023-05-09T13:20:29.090Z,68.90
2023-05-09T13:24:10.865Z,68.90
2023-05-09T13:27:52.621Z,69.00
2023-05-09T13:31:34.404Z,69.00
2023-05-09T13:35:16.806Z,69.00
2023-05-09T13:38:58.488Z,68.90
2023-05-09T13:42:40.866Z,69.50
2023-05-09T13:46:22.635Z,69.00
2023-05-09T13:50:04.538Z,69.00
2023-05-09T13:53:46.565Z,69.00
2023-05-09T13:57:28.679Z,69.00
2023-05-09T14:01:10.483Z,69.10
2023-05-09T14:04:52.284Z,69.00
2023-05-09T14:08:34.078Z,69.00
2023-05-09T14:12:16.351Z,69.00
2023-05-09T14:15:58.079Z,69.00
2023-05-09T14:19:39.831Z,68.90
2023-05-09T14:23:22.274Z,68.90
2023-05-09T14:27:04.091Z,69.00
2023-05-09T14:30:45.812Z,69.00
2023-05-09T14:34:27.617Z,69.10
2023-05-09T14:38:09.357Z,69.00
2023-05-09T14:41:52.063Z,69.00
2023-05-09T14:45:34.013Z,69.10
2023-05-09T14:49:15.716Z,69.10
2023-05-09T14:52:57.708Z,69.00
2023-05-09T14:56:39.399Z,69.10
2023-05-09T15:00:22.617Z,69.10
2023-05-09T15:04:04.604Z,69.00
2023-05-09T15:07:46.512Z,69.10
2023-05-09T15:11:28.751Z,68.90
2023-05-09T15:15:20.548Z,68.70
2023-05-09T15:19:03.814Z,68.80
2023-05-09T15:22:48.284Z,68.90
2023-05-09T15:26:30.197Z,69.00
2023-05-09T15:30:12.302Z,69.00
2023-05-09T15:33:54.090Z,69.10
2023-05-09T15:37:36.396Z,69.10
2023-05-09T15:41:18.536Z,69.10
2023-05-09T15:45:00.414Z,69.20
2023-05-09T15:48:42.380Z,69.20
2023-05-09T15:52:24.071Z,69.20
2023-05-09T15:56:06.155Z,69.30
2023-05-09T15:59:47.888Z,69.30
2023-05-09T16:03:29.641Z,69.30
2023-05-09T16:07:11.590Z,69.40
2023-05-09T16:10:53.364Z,69.40
2023-05-09T16:14:35.928Z,70.10
2023-05-09T16:18:17.662Z,69.50
2023-05-09T16:21:59.359Z,69.50
2023-05-09T16:25:41.603Z,69.40
2023-05-09T16:29:23.457Z,69.40
2023-05-09T16:33:05.137Z,69.40
2023-05-09T16:36:47.461Z,69.50
2023-05-09T16:40:29.172Z,69.50
2023-05-09T16:44:10.859Z,69.40
2023-05-09T16:47:54.012Z,69.50
2023-05-09T16:51:35.881Z,69.50
2023-05-09T16:55:17.887Z,69.50
2023-05-09T16:58:59.628Z,69.50
2023-05-09T17:02:41.591Z,69.50
2023-05-09T17:06:23.615Z,69.50
2023-05-09T17:10:05.836Z,69.50
2023-05-09T17:13:47.523Z,69.40
2023-05-09T17:17:29.280Z,69.40
2023-05-09T17:21:11.004Z,69.30
2023-05-09T17:24:53.480Z,69.30
2023-05-09T17:28:35.192Z,69.30
2023-05-09T17:32:16.988Z,69.20
2023-05-09T17:36:00.042Z,69.20
2023-05-09T17:39:42.640Z,69.20
2023-05-09T17:43:24.540Z,69.30
2023-05-09T17:47:06.504Z,69.20
2023-05-09T17:50:48.230Z,69.20
2023-05-09T17:54:29.976Z,69.20
2023-05-09T17:58:14.091Z,69.10
2023-05-09T18:01:55.976Z,69.40
2023-05-09T18:05:38.001Z,69.40
2023-05-09T18:09:19.702Z,69.20
2023-05-09T18:13:01.437Z,69.20
2023-05-09T18:16:43.403Z,69.20
2023-05-09T18:20:25.208Z,69.10
2023-05-09T18:24:09.103Z,69.10
2023-05-09T18:27:51.141Z,69.00
2023-05-09T18:31:40.863Z,69.00
2023-05-09T18:35:27.130Z,69.00
2023-05-09T18:39:14.017Z,68.90
2023-05-09T18:43:00.034Z,68.90
2023-05-09T18:46:46.501Z,68.90
2023-05-09T18:50:32.657Z,68.80
2023-05-09T18:54:18.344Z,68.80
2023-05-09T18:58:04.053Z,68.80
2023-05-09T19:01:50.990Z,68.70
2023-05-09T19:05:36.864Z,68.70
2023-05-09T19:09:22.843Z,68.70
2023-05-09T19:13:08.696Z,68.70
2023-05-09T19:16:54.623Z,68.80
2023-05-09T19:20:39.223Z,68.80
2023-05-09T19:24:25.039Z,68.00
2023-05-09T19:28:11.011Z,67.80
2023-05-09T19:31:56.621Z,67.80
2023-05-09T19:35:43.621Z,68.20
2023-05-09T19:39:31.084Z,68.30
2023-05-09T19:43:17.039Z,68.50
2023-05-09T19:47:04.232Z,69.10
2023-05-09T19:50:49.998Z,69.40
2023-05-09T19:54:36.021Z,69.40
2023-05-09T19:58:22.260Z,69.50
2023-05-09T20:02:08.227Z,69.40
2023-05-09T20:05:53.926Z,69.30
2023-05-09T20:09:39.227Z,69.20
2023-05-09T20:13:25.296Z,69.10
2023-05-09T20:17:11.533Z,69.10
2023-05-09T20:20:55.559Z,69.10
2023-05-09T20:24:40.862Z,69.00
2023-05-09T20:28:26.990Z,69.00
2023-05-09T20:32:13.361Z,68.90
2023-05-09T20:35:59.190Z,68.90
2023-05-09T20:39:47.882Z,68.80
2023-05-09T20:43:34.219Z,68.70
2023-05-09T20:47:19.768Z,68.70
2023-05-09T20:51:06.016Z,68.60
2023-05-09T20:54:51.986Z,68.70
2023-05-09T20:58:37.752Z,68.60
2023-05-09T21:02:23.960Z,68.60
2023-05-09T21:06:10.253Z,68.50
2023-05-09T21:09:56.263Z,68.50
2023-05-09T21:13:41.898Z,68.50
2023-05-09T21:17:27.873Z,68.40
2023-05-09T21:21:13.267Z,68.40
2023-05-09T21:24:59.217Z,68.40
2023-05-09T21:28:44.808Z,68.30
2023-05-09T21:32:30.784Z,68.40
2023-05-09T21:36:16.766Z,68.30
2023-05-09T21:40:12.325Z,68.30
2023-05-09T21:43:58.218Z,68.20
2023-05-09T21:47:44.300Z,68.20
2023-05-09T21:51:31.077Z,68.20
2023-05-09T21:55:17.046Z,68.20
2023-05-09T21:59:01.684Z,68.20
2023-05-09T22:02:47.350Z,68.20
2023-05-09T22:06:33.868Z,68.10
2023-05-09T22:10:19.782Z,68.20
2023-05-09T22:14:05.596Z,68.10
2023-05-09T22:17:51.332Z,68.10
2023-05-09T22:21:36.717Z,68.10
2023-05-09T22:25:23.150Z,68.10
2023-05-09T22:29:08.767Z,68.10
2023-05-09T22:32:54.770Z,68.10
2023-05-09T22:36:40.738Z,68.00
2023-05-09T22:40:26.292Z,68.00
2023-05-09T22:44:12.318Z,68.00
2023-05-09T22:47:57.894Z,68.00
2023-05-09T22:51:44.141Z,68.00
2023-05-09T22:55:30.525Z,67.90
2023-05-09T22:59:16.303Z,67.90
2023-05-09T23:03:02.399Z,67.90
2023-05-09T23:06:48.434Z,67.90
2023-05-09T23:10:34.405Z,67.80
2023-05-09T23:14:19.960Z,67.80
2023-05-09T23:18:07.002Z,67.80
2023-05-09T23:21:52.748Z,67.70
2023-05-09T23:25:38.381Z,67.70
2023-05-09T23:29:24.203Z,67.70
2023-05-09T23:33:09.918Z,67.70
2023-05-09T23:36:55.740Z,67.70
2023-05-09T23:40:42.820Z,67.70
2023-05-09T23:44:29.085Z,67.60
2023-05-09T23:48:14.789Z,67.60
2023-05-09T23:52:00.290Z,67.60
2023-05-09T23:55:46.113Z,67.60
2023-05-09T23:59:31.946Z,67.50
